createdAt,value
2017-07-20T00:00:00.004Z,4.23
2017-07-20T00:02:27.521Z,8.10
2017-07-20T00:04:55.804Z,9.40
2017-07-20T00:07:23.717Z,8.53
2017-07-20T00:09:51.252Z,5.90
2017-07-20T00:12:18.793Z,3.93
2017-07-20T00:14:47.409Z,4.10
2017-07-20T00:17:14.936Z,3.43
2017-07-20T00:19:43.229Z,2.77
2017-07-20T00:22:11.139Z,3.20
2017-07-20T00:24:38.704Z,3.20
2017-07-20T00:27:06.235Z,3.17
2017-07-20T00:29:34.108Z,2.40
2017-07-20T00:32:01.621Z,2.60
2017-07-20T00:34:29.930Z,2.50
2017-07-20T00:36:57.813Z,2.30
2017-07-20T00:39:25.430Z,2.20
2017-07-20T00:41:53.726Z,2.30
2017-07-20T00:44:21.621Z,2.50
2017-07-20T00:46:49.148Z,2.00
2017-07-20T00:49:17.465Z,2.77
2017-07-20T00:51:45.330Z,2.40
2017-07-20T00:54:12.840Z,2.40
2017-07-20T00:56:41.134Z,2.50
2017-07-20T00:59:09.099Z,2.50
2017-07-20T01:01:37.398Z,2.50
2017-07-20T01:04:04.914Z,2.90
2017-07-20T01:06:32.709Z,2.67
2017-07-20T01:09:00.243Z,2.73
2017-07-20T01:11:27.765Z,2.37
2017-07-20T01:13:55.669Z,2.90
2017-07-20T01:16:23.181Z,2.70
2017-07-20T01:18:50.718Z,2.97
2017-07-20T01:21:18.637Z,2.20
2017-07-20T01:23:46.177Z,2.20
2017-07-20T01:26:13.766Z,2.70
2017-07-20T01:28:41.597Z,2.57
2017-07-20T01:31:09.112Z,2.90
2017-07-20T01:33:37.393Z,2.27
2017-07-20T01:36:06.034Z,2.30
2017-07-20T01:38:33.538Z,2.50
2017-07-20T01:41:01.065Z,2.40
2017-07-20T01:43:28.892Z,2.40
2017-07-20T01:45:56.435Z,3.60
2017-07-20T01:48:23.940Z,2.20
2017-07-20T01:50:51.812Z,2.10
2017-07-20T01:53:19.337Z,2.20
2017-07-20T01:55:46.874Z,3.63
2017-07-20T01:58:15.509Z,2.40
2017-07-20T02:00:43.036Z,3.03
2017-07-20T02:03:10.554Z,4.23
2017-07-20T02:05:38.402Z,2.20
2017-07-20T02:08:05.941Z,2.90
2017-07-20T02:10:33.469Z,2.93
2017-07-20T02:13:02.097Z,3.40
2017-07-20T02:15:29.631Z,3.00
2017-07-20T02:17:57.146Z,2.10
2017-07-20T02:20:24.977Z,2.87
2017-07-20T02:22:52.519Z,2.40
2017-07-20T02:25:20.040Z,2.40
2017-07-20T02:27:47.984Z,3.50
2017-07-20T02:30:15.512Z,2.70
2017-07-20T02:32:43.065Z,2.60
2017-07-20T02:35:10.958Z,2.23
2017-07-20T02:37:38.472Z,2.73
2017-07-20T02:40:05.997Z,3.00
2017-07-20T02:42:33.863Z,3.40
2017-07-20T02:45:01.393Z,3.10
2017-07-20T02:47:28.904Z,3.60
2017-07-20T02:49:56.751Z,3.00
2017-07-20T02:52:24.279Z,3.03
2017-07-20T02:54:51.806Z,3.20
2017-07-20T02:57:19.744Z,3.43
2017-07-20T02:59:47.278Z,3.60
2017-07-20T03:02:14.820Z,3.67
2017-07-20T03:04:42.723Z,3.27
2017-07-20T03:07:10.239Z,3.40
2017-07-20T03:09:38.514Z,3.03
2017-07-20T03:12:07.134Z,3.73
2017-07-20T03:14:34.662Z,3.60
2017-07-20T03:17:02.937Z,3.60
2017-07-20T03:19:31.551Z,3.00
2017-07-20T03:22:10.946Z,3.17
2017-07-20T03:24:39.568Z,3.50
2017-07-20T03:27:07.101Z,3.80
2017-07-20T03:29:35.392Z,2.80
2017-07-20T03:32:03.179Z,3.60
2017-07-20T03:34:30.713Z,4.00
2017-07-20T03:36:58.269Z,3.80
2017-07-20T03:39:26.072Z,4.10
2017-07-20T03:41:53.606Z,4.03
2017-07-20T03:44:21.117Z,4.50
2017-07-20T03:46:48.956Z,3.83
2017-07-20T03:49:16.485Z,3.30
2017-07-20T03:51:44.771Z,3.60
2017-07-20T03:54:12.661Z,3.80
2017-07-20T03:56:40.184Z,3.20
2017-07-20T03:59:07.692Z,2.80
2017-07-20T04:01:35.570Z,4.50
2017-07-20T04:04:03.078Z,4.00
2017-07-20T04:06:30.610Z,3.50
2017-07-20T04:08:58.465Z,3.57
2017-07-20T04:11:25.988Z,3.93
2017-07-20T04:13:53.495Z,3.33
2017-07-20T04:16:21.422Z,4.07
2017-07-20T04:18:48.966Z,4.60
2017-07-20T04:21:16.523Z,4.13
2017-07-20T04:23:44.424Z,6.13
2017-07-20T04:26:11.984Z,4.70
2017-07-20T04:28:39.499Z,4.20
2017-07-20T04:31:07.319Z,4.07
2017-07-20T04:33:34.836Z,5.10
2017-07-20T04:36:02.369Z,3.90
2017-07-20T04:38:30.292Z,3.93
2017-07-20T04:40:57.810Z,5.73
2017-07-20T04:43:25.333Z,4.37
2017-07-20T04:45:53.152Z,4.30
2017-07-20T04:48:20.692Z,4.77
2017-07-20T04:50:48.985Z,4.80
2017-07-20T04:53:16.887Z,6.03
2017-07-20T04:55:44.397Z,5.50
2017-07-20T04:58:12.698Z,6.27
2017-07-20T05:00:40.589Z,5.87
2017-07-20T05:03:08.875Z,5.13
2017-07-20T05:05:36.391Z,4.83
2017-07-20T05:08:04.297Z,5.23
2017-07-20T05:10:31.824Z,6.17
2017-07-20T05:13:05.945Z,5.60
2017-07-20T05:15:33.483Z,5.87
2017-07-20T05:18:01.766Z,5.40
2017-07-20T05:20:29.617Z,5.60
2017-07-20T05:22:57.135Z,4.13
2017-07-20T05:25:24.689Z,4.47
2017-07-20T05:27:52.521Z,4.20
2017-07-20T05:30:20.808Z,4.50
2017-07-20T05:32:48.312Z,4.40
2017-07-20T05:35:16.179Z,4.97
2017-07-20T05:37:43.692Z,5.50
2017-07-20T05:40:11.280Z,4.13
2017-07-20T05:42:39.142Z,7.47
2017-07-20T05:45:06.690Z,4.90
2017-07-20T05:47:34.235Z,4.30
2017-07-20T05:50:02.037Z,3.80
2017-07-20T05:52:30.571Z,3.80
2017-07-20T05:54:58.875Z,3.73
2017-07-20T05:57:26.746Z,3.53
2017-07-20T05:59:54.484Z,3.17
2017-07-20T06:02:22.784Z,3.90
2017-07-20T06:04:50.624Z,3.63
2017-07-20T06:07:18.136Z,4.03
2017-07-20T06:09:45.655Z,4.07
2017-07-20T06:12:14.289Z,3.90
2017-07-20T06:14:41.813Z,4.03
2017-07-20T06:17:09.318Z,3.30
2017-07-20T06:19:37.127Z,3.03
2017-07-20T06:22:04.669Z,3.60
2017-07-20T06:24:32.976Z,3.70
2017-07-20T06:27:00.769Z,3.67
2017-07-20T06:29:28.316Z,3.30
2017-07-20T06:31:55.855Z,3.40
2017-07-20T06:34:24.491Z,3.33
2017-07-20T06:36:52.007Z,3.07
2017-07-20T06:39:19.514Z,3.50
2017-07-20T06:41:47.373Z,3.40
2017-07-20T06:44:14.920Z,3.40
2017-07-20T06:46:42.430Z,2.93
2017-07-20T06:49:10.249Z,3.70
2017-07-20T06:51:37.788Z,3.77
2017-07-20T06:54:05.322Z,3.20
2017-07-20T06:56:34.091Z,4.10
2017-07-20T06:59:01.608Z,4.40
2017-07-20T07:01:29.135Z,3.07
2017-07-20T07:03:57.062Z,3.57
2017-07-20T07:06:24.573Z,4.07
2017-07-20T07:08:52.113Z,3.43
2017-07-20T07:11:20.747Z,2.80
2017-07-20T07:13:48.267Z,3.20
2017-07-20T07:16:16.582Z,2.97
2017-07-20T07:18:44.494Z,4.97
2017-07-20T07:21:12.035Z,4.20
2017-07-20T07:23:39.541Z,3.60
2017-07-20T07:26:07.347Z,4.00
2017-07-20T07:28:34.896Z,3.27
2017-07-20T07:31:02.439Z,3.60
2017-07-20T07:33:30.333Z,4.00
2017-07-20T07:35:57.862Z,3.73
2017-07-20T07:38:26.154Z,4.20
2017-07-20T07:40:53.979Z,3.93
2017-07-20T07:43:21.494Z,3.57
2017-07-20T07:45:49.032Z,4.17
2017-07-20T07:48:16.941Z,3.20
2017-07-20T07:50:44.454Z,4.37
2017-07-20T07:53:11.986Z,3.60
2017-07-20T07:55:39.823Z,8.73
2017-07-20T07:58:07.349Z,3.53
2017-07-20T08:00:34.878Z,3.73
2017-07-20T08:03:03.550Z,4.10
2017-07-20T08:05:31.103Z,4.00
2017-07-20T08:07:58.629Z,3.50
2017-07-20T08:10:26.515Z,4.43
2017-07-20T08:12:54.039Z,3.70
2017-07-20T08:15:21.579Z,3.43
2017-07-20T08:17:50.141Z,3.60
2017-07-20T08:20:17.727Z,4.20
2017-07-20T08:22:46.032Z,3.30
2017-07-20T08:25:13.945Z,3.50
2017-07-20T08:27:42.259Z,3.40
2017-07-20T08:30:09.813Z,3.40
2017-07-20T08:32:38.412Z,3.63
2017-07-20T08:35:05.954Z,3.23
2017-07-20T08:37:33.469Z,3.83
2017-07-20T08:40:01.297Z,3.40
2017-07-20T08:42:29.575Z,3.53
2017-07-20T08:44:57.128Z,2.63
2017-07-20T08:47:25.986Z,3.70
2017-07-20T08:49:53.551Z,4.00
2017-07-20T08:52:21.103Z,3.70
2017-07-20T08:54:49.059Z,3.50
2017-07-20T08:57:16.626Z,3.60
2017-07-20T08:59:44.136Z,3.03
2017-07-20T09:02:12.072Z,2.67
2017-07-20T09:04:39.587Z,3.40
2017-07-20T09:07:07.139Z,3.73
2017-07-20T09:09:34.950Z,3.90
2017-07-20T09:12:02.487Z,2.97
2017-07-20T09:14:29.994Z,3.10
2017-07-20T09:16:57.852Z,3.87
2017-07-20T09:19:25.440Z,2.90
2017-07-20T09:21:52.965Z,4.30
2017-07-20T09:24:20.809Z,2.80
2017-07-20T09:26:48.318Z,3.27
2017-07-20T09:29:15.849Z,2.90
2017-07-20T09:31:43.695Z,3.27
2017-07-20T09:34:11.211Z,3.50
2017-07-20T09:36:38.729Z,3.07
2017-07-20T09:39:06.680Z,3.53
2017-07-20T09:41:34.207Z,3.10
2017-07-20T09:44:01.762Z,3.20
2017-07-20T09:46:30.333Z,3.93
2017-07-20T09:48:57.857Z,2.90
2017-07-20T09:51:25.402Z,2.90
2017-07-20T09:53:53.247Z,3.60
2017-07-20T09:56:20.765Z,3.30
2017-07-20T09:58:48.301Z,4.00
2017-07-20T10:01:16.230Z,3.20
2017-07-20T10:03:43.743Z,3.60
2017-07-20T10:06:11.273Z,4.30
2017-07-20T10:08:39.139Z,3.30
2017-07-20T10:11:06.674Z,4.00
2017-07-20T10:13:34.669Z,3.20
2017-07-20T10:16:02.491Z,3.57
2017-07-20T10:18:30.001Z,3.17
2017-07-20T10:20:57.530Z,3.73
2017-07-20T10:23:25.385Z,3.50
2017-07-20T10:25:52.899Z,3.37
2017-07-20T10:28:20.444Z,4.00
2017-07-20T10:30:48.295Z,3.90
2017-07-20T10:33:15.849Z,3.67
2017-07-20T10:35:43.390Z,3.67
2017-07-20T10:38:12.014Z,3.30
2017-07-20T10:40:39.539Z,3.30
2017-07-20T10:43:07.831Z,3.90
2017-07-20T10:45:35.668Z,3.43
2017-07-20T10:48:03.978Z,3.80
2017-07-20T10:50:31.506Z,4.23
2017-07-20T10:53:00.256Z,4.80
2017-07-20T10:55:27.783Z,4.40
2017-07-20T10:57:55.313Z,4.00
2017-07-20T11:00:23.117Z,4.10
2017-07-20T11:02:50.622Z,3.83
2017-07-20T11:05:18.139Z,3.57
2017-07-20T11:07:45.958Z,4.27
2017-07-20T11:10:13.482Z,4.37
2017-07-20T11:12:41.008Z,4.47
2017-07-20T11:15:08.917Z,4.13
2017-07-20T11:17:36.481Z,4.00
2017-07-20T11:20:04.020Z,4.53
2017-07-20T11:22:31.903Z,4.63
2017-07-20T11:24:59.427Z,4.80
2017-07-20T11:27:26.976Z,3.73
2017-07-20T11:29:55.607Z,4.57
2017-07-20T11:32:23.128Z,4.33
2017-07-20T11:34:51.412Z,5.17
2017-07-20T11:37:19.348Z,5.23
2017-07-20T11:39:46.899Z,6.10
2017-07-20T11:42:14.416Z,4.47
2017-07-20T11:44:42.315Z,3.73
2017-07-20T11:47:09.834Z,8.80
2017-07-20T11:49:37.353Z,5.03
2017-07-20T11:52:05.400Z,5.40
2017-07-20T11:54:32.923Z,5.20
2017-07-20T11:57:00.449Z,4.43
2017-07-20T11:59:28.394Z,4.70
2017-07-20T12:01:55.907Z,5.13
2017-07-20T12:04:23.417Z,5.33
2017-07-20T12:06:51.314Z,4.43
2017-07-20T12:09:19.618Z,4.90
2017-07-20T12:11:47.153Z,5.33
2017-07-20T12:14:15.736Z,5.80
2017-07-20T12:16:43.256Z,6.37
2017-07-20T12:19:10.780Z,4.90
2017-07-20T12:21:38.599Z,5.10
2017-07-20T12:24:06.131Z,5.60
2017-07-20T12:26:33.674Z,5.77
2017-07-20T12:29:01.493Z,7.80
2017-07-20T12:31:29.032Z,6.57
2017-07-20T12:33:56.559Z,6.20
2017-07-20T12:36:24.457Z,6.27
2017-07-20T12:38:52.304Z,6.27
2017-07-20T12:41:19.821Z,4.87
2017-07-20T12:43:47.647Z,4.97
2017-07-20T12:46:15.160Z,4.73
2017-07-20T12:48:43.453Z,5.03
2017-07-20T12:51:11.298Z,4.80
2017-07-20T12:53:38.855Z,5.00
2017-07-20T12:56:06.411Z,4.80
2017-07-20T12:58:34.227Z,4.17
2017-07-20T13:01:01.754Z,4.53
2017-07-20T13:03:29.301Z,4.20
2017-07-20T13:05:57.901Z,4.43
2017-07-20T13:08:26.197Z,4.40
2017-07-20T13:10:53.720Z,4.73
2017-07-20T13:13:21.530Z,4.10
2017-07-20T13:15:49.091Z,4.43
2017-07-20T13:18:16.621Z,4.77
2017-07-20T13:20:44.640Z,4.60
2017-07-20T13:23:12.169Z,4.70
2017-07-20T13:25:39.717Z,5.00
2017-07-20T13:28:08.350Z,4.70
2017-07-20T13:30:35.896Z,4.20
2017-07-20T13:33:03.411Z,5.27
2017-07-20T13:35:32.030Z,5.27
2017-07-20T13:37:59.542Z,3.70
2017-07-20T13:40:27.081Z,4.40
2017-07-20T13:42:54.917Z,4.37
2017-07-20T13:45:22.439Z,4.57
2017-07-20T13:47:49.974Z,4.40
2017-07-20T13:50:17.842Z,4.40
2017-07-20T13:52:45.426Z,4.73
2017-07-20T13:55:12.981Z,4.87
2017-07-20T13:57:40.788Z,4.30
2017-07-20T14:00:08.308Z,4.37
2017-07-20T14:02:35.863Z,4.53
2017-07-20T14:05:03.711Z,4.60
2017-07-20T14:07:31.219Z,5.50
2017-07-20T14:09:58.778Z,4.00
2017-07-20T14:12:26.687Z,4.50
2017-07-20T14:14:54.215Z,5.30
2017-07-20T14:17:21.742Z,4.63
2017-07-20T14:19:49.550Z,5.40
2017-07-20T14:22:17.084Z,5.10
2017-07-20T14:24:45.408Z,4.60
2017-07-20T14:27:13.265Z,4.10
2017-07-20T14:29:40.810Z,4.80
2017-07-20T14:32:08.311Z,5.20
2017-07-20T14:34:36.173Z,4.80
2017-07-20T14:37:03.706Z,5.00
2017-07-20T14:39:31.224Z,5.13
2017-07-20T14:41:59.099Z,5.33
2017-07-20T14:44:26.673Z,5.33
2017-07-20T14:46:54.972Z,4.80
2017-07-20T14:49:22.869Z,4.67
2017-07-20T14:51:50.409Z,4.47
2017-07-20T14:54:17.960Z,4.60
2017-07-20T14:56:45.940Z,4.80
2017-07-20T14:59:13.540Z,5.17
2017-07-20T15:01:41.222Z,4.80
2017-07-20T15:04:09.064Z,5.67
2017-07-20T15:06:36.609Z,5.40
2017-07-20T15:09:04.120Z,5.10
2017-07-20T15:11:32.759Z,5.23
2017-07-20T15:14:00.291Z,5.30
2017-07-20T15:16:27.823Z,4.80
2017-07-20T15:18:56.403Z,4.40
2017-07-20T15:21:23.952Z,4.90
2017-07-20T15:23:51.474Z,4.50
2017-07-20T15:26:19.300Z,4.83
2017-07-20T15:28:47.587Z,4.90
2017-07-20T15:31:15.128Z,4.67
2017-07-20T15:33:43.767Z,4.83
2017-07-20T15:36:11.297Z,4.03
2017-07-20T15:38:38.811Z,4.77
2017-07-20T15:41:06.627Z,5.00
2017-07-20T15:43:34.156Z,4.60
2017-07-20T15:46:01.687Z,5.37
2017-07-20T15:48:29.558Z,5.23
2017-07-20T15:50:57.075Z,5.47
2017-07-20T15:53:24.594Z,5.20
2017-07-20T15:55:52.455Z,5.20
2017-07-20T15:58:19.983Z,5.00
2017-07-20T16:00:47.518Z,5.10
2017-07-20T16:03:16.248Z,4.70
2017-07-20T16:05:43.771Z,5.73
2017-07-20T16:08:11.291Z,5.20
2017-07-20T16:10:39.132Z,5.20
2017-07-20T16:13:06.683Z,5.20
2017-07-20T16:15:34.240Z,4.93
2017-07-20T16:18:02.053Z,5.47
2017-07-20T16:20:29.571Z,5.70
2017-07-20T16:22:57.082Z,5.83
2017-07-20T16:25:25.765Z,5.70
2017-07-20T16:27:54.080Z,5.60
2017-07-20T16:30:21.596Z,6.07
2017-07-20T16:32:49.524Z,6.10
2017-07-20T16:35:17.052Z,5.93
2017-07-20T16:37:44.584Z,5.80
2017-07-20T16:40:12.444Z,6.83
2017-07-20T16:42:39.993Z,6.93
2017-07-20T16:45:07.581Z,6.43
2017-07-20T16:47:36.245Z,6.20
2017-07-20T16:50:03.795Z,6.83
2017-07-20T16:52:31.505Z,6.37
2017-07-20T16:54:59.447Z,6.73
2017-07-20T16:57:27.018Z,7.10
2017-07-20T16:59:54.588Z,6.93
2017-07-20T17:02:22.424Z,7.07
2017-07-20T17:04:52.044Z,6.33
2017-07-20T17:07:19.598Z,6.20
2017-07-20T17:09:47.456Z,7.30
2017-07-20T17:12:15.017Z,6.23
2017-07-20T17:14:42.584Z,7.87
2017-07-20T17:17:10.405Z,7.50
2017-07-20T17:19:37.959Z,8.18
2017-07-20T17:22:05.499Z,9.10
2017-07-20T17:24:34.113Z,8.10
2017-07-20T17:27:02.238Z,8.80
2017-07-20T17:29:29.795Z,8.50
2017-07-20T17:31:57.635Z,8.60
2017-07-20T17:34:25.188Z,7.70
2017-07-20T17:36:52.720Z,7.53
2017-07-20T17:39:20.573Z,6.80
2017-07-20T17:41:48.878Z,7.20
2017-07-20T17:44:16.435Z,8.53
2017-07-20T17:46:44.246Z,8.80
2017-07-20T17:49:11.778Z,8.60
2017-07-20T17:51:39.309Z,9.07
2017-07-20T17:54:07.951Z,9.57
2017-07-20T17:56:35.483Z,10.20
2017-07-20T17:59:03.065Z,10.63
2017-07-20T18:01:30.940Z,11.53
2017-07-20T18:03:58.473Z,10.70
2017-07-20T18:06:26.065Z,11.30
2017-07-20T18:08:53.886Z,9.00
2017-07-20T18:11:21.451Z,11.00
2017-07-20T18:13:48.998Z,10.33
2017-07-20T18:16:16.861Z,11.00
2017-07-20T18:18:44.408Z,10.00
2017-07-20T18:21:11.974Z,9.47
2017-07-20T18:23:39.840Z,9.70
2017-07-20T18:26:07.394Z,8.87
2017-07-20T18:28:35.716Z,8.63
2017-07-20T18:31:03.611Z,8.77
2017-07-20T18:33:31.151Z,8.47
2017-07-20T18:35:58.708Z,8.70
2017-07-20T18:38:26.596Z,8.70
2017-07-20T18:40:54.114Z,8.60
2017-07-20T18:43:21.668Z,9.07
2017-07-20T18:45:49.595Z,9.07
2017-07-20T18:48:17.139Z,9.33
2017-07-20T18:50:44.662Z,8.57
2017-07-20T18:53:12.574Z,9.35
2017-07-20T18:55:40.120Z,8.00
2017-07-20T18:58:07.636Z,7.97
2017-07-20T19:00:35.581Z,7.20
2017-07-20T19:03:03.191Z,7.30
2017-07-20T19:05:30.816Z,7.43
2017-07-20T19:07:58.689Z,6.87
2017-07-20T19:10:26.249Z,6.50
2017-07-20T19:12:53.831Z,6.17
2017-07-20T19:15:21.672Z,7.40
2017-07-20T19:17:49.221Z,6.67
2017-07-20T19:20:16.766Z,6.80
2017-07-20T19:22:44.626Z,6.73
2017-07-20T19:25:12.172Z,6.60
2017-07-20T19:27:39.759Z,6.33
2017-07-20T19:30:07.617Z,6.67
2017-07-20T19:32:35.149Z,6.33
2017-07-20T19:35:02.674Z,5.97
2017-07-20T19:37:31.280Z,5.30
2017-07-20T19:39:58.791Z,6.80
2017-07-20T19:42:26.307Z,6.47
2017-07-20T19:44:54.159Z,9.03
2017-07-20T19:47:21.723Z,6.47
2017-07-20T19:49:49.286Z,6.00
2017-07-20T19:52:17.099Z,6.13
2017-07-20T19:54:44.626Z,6.80
2017-07-20T19:57:12.182Z,7.23
2017-07-20T19:59:40.096Z,7.07
2017-07-20T20:02:07.629Z,6.10
2017-07-20T20:04:35.182Z,6.20
2017-07-20T20:07:03.064Z,7.10
2017-07-20T20:09:30.605Z,6.80
2017-07-20T20:11:58.137Z,6.73
2017-07-20T20:14:26.764Z,6.60
2017-07-20T20:16:54.283Z,7.43
2017-07-20T20:19:21.846Z,6.40
2017-07-20T20:21:50.502Z,7.30
2017-07-20T20:24:18.019Z,6.93
2017-07-20T20:26:45.538Z,7.10
2017-07-20T20:29:13.372Z,7.77
2017-07-20T20:31:40.928Z,7.30
2017-07-20T20:34:08.460Z,7.20
2017-07-20T20:36:36.362Z,7.07
2017-07-20T20:39:03.908Z,6.87
2017-07-20T20:41:31.467Z,6.70
2017-07-20T20:43:59.315Z,7.17
2017-07-20T20:46:26.863Z,7.13
2017-07-20T20:48:55.180Z,7.33
2017-07-20T20:51:23.893Z,6.30
2017-07-20T20:53:51.470Z,7.03
2017-07-20T20:56:19.025Z,7.07
2017-07-20T20:58:46.869Z,7.23
2017-07-20T21:01:14.407Z,7.17
2017-07-20T21:03:41.977Z,6.60
2017-07-20T21:06:09.853Z,7.10
2017-07-20T21:08:37.417Z,7.10
2017-07-20T21:11:04.955Z,7.30
2017-07-20T21:13:32.867Z,7.90
2017-07-20T21:16:00.408Z,7.00
2017-07-20T21:18:27.937Z,7.37
2017-07-20T21:20:55.770Z,7.23
2017-07-20T21:23:24.078Z,7.00
2017-07-20T21:25:51.601Z,6.93
2017-07-20T21:28:20.303Z,6.83
2017-07-20T21:30:48.619Z,6.63
2017-07-20T21:33:16.153Z,6.77
2017-07-20T21:35:44.057Z,6.37
2017-07-20T21:38:11.597Z,6.77
2017-07-20T21:40:39.124Z,6.20
2017-07-20T21:43:07.738Z,5.67
2017-07-20T21:45:35.290Z,6.37
2017-07-20T21:48:02.830Z,6.50
2017-07-20T21:50:31.588Z,5.70
2017-07-20T21:52:59.125Z,6.93
2017-07-20T21:55:26.653Z,6.40
2017-07-20T21:57:55.333Z,6.53
2017-07-20T22:00:23.040Z,7.00
2017-07-20T22:02:50.610Z,5.77
2017-07-20T22:05:18.490Z,6.70
2017-07-20T22:07:46.016Z,6.27
2017-07-20T22:10:13.540Z,5.80
2017-07-20T22:12:42.114Z,6.20
2017-07-20T22:15:09.661Z,5.70
2017-07-20T22:17:37.172Z,6.43
2017-07-20T22:20:05.067Z,6.03
2017-07-20T22:22:32.589Z,5.63
2017-07-20T22:25:00.126Z,6.60
2017-07-20T22:27:28.719Z,5.90
2017-07-20T22:29:56.254Z,6.23
2017-07-20T22:32:23.799Z,5.93
2017-07-20T22:34:51.635Z,5.60
2017-07-20T22:37:19.155Z,5.97
2017-07-20T22:39:46.677Z,5.53
2017-07-20T22:42:14.562Z,5.50
2017-07-20T22:44:42.070Z,5.63
2017-07-20T22:47:09.593Z,6.93
2017-07-20T22:49:37.420Z,6.07
2017-07-20T22:52:04.952Z,6.53
2017-07-20T22:54:32.454Z,5.63
2017-07-20T22:57:00.319Z,5.97
2017-07-20T22:59:27.874Z,5.57
2017-07-20T23:01:55.443Z,5.67
2017-07-20T23:04:23.254Z,5.40
2017-07-20T23:06:51.583Z,5.60
2017-07-20T23:09:19.118Z,5.60
2017-07-20T23:11:46.999Z,6.10
2017-07-20T23:14:14.524Z,6.50
2017-07-20T23:16:42.063Z,6.30
2017-07-20T23:19:09.897Z,5.60
2017-07-20T23:21:37.434Z,5.70
2017-07-20T23:24:04.952Z,5.90
2017-07-20T23:26:32.803Z,6.20
2017-07-20T23:29:00.328Z,8.40
2017-07-20T23:31:27.845Z,5.30
2017-07-20T23:33:55.656Z,5.80
2017-07-20T23:36:23.201Z,5.27
2017-07-20T23:38:50.735Z,5.93
2017-07-20T23:41:18.674Z,6.03
2017-07-20T23:43:46.203Z,4.83
2017-07-20T23:46:13.885Z,5.43
2017-07-20T23:48:41.755Z,6.00
2017-07-20T23:51:09.283Z,6.07
2017-07-20T23:53:36.817Z,6.27
2017-07-20T23:56:04.667Z,5.50
2017-07-20T23:58:32.967Z,5.30
